createdAt,value
2018-06-15T00:00:48.360Z,2.00
2018-06-15T00:01:48.348Z,1.80
2018-06-15T00:02:48.335Z,1.60
2018-06-15T00:03:48.321Z,1.50
2018-06-15T00:04:48.314Z,1.50
2018-06-15T00:05:48.298Z,1.60
2018-06-15T00:06:48.285Z,1.20
2018-06-15T00:07:48.276Z,1.60
2018-06-15T00:08:48.260Z,1.60
2018-06-15T00:09:48.249Z,1.50
2018-06-15T00:10:48.238Z,1.40
2018-06-15T00:11:48.223Z,1.40
2018-06-15T00:12:48.210Z,1.40
2018-06-15T00:13:48.200Z,1.70
2018-06-15T00:14:48.186Z,1.70
2018-06-15T00:15:48.176Z,1.70
2018-06-15T00:16:48.161Z,1.40
2018-06-15T00:17:48.197Z,1.30
2018-06-15T00:18:48.138Z,1.30
2018-06-15T00:19:48.123Z,1.20
2018-06-15T00:20:48.115Z,1.20
2018-06-15T00:21:48.098Z,1.40
2018-06-15T00:22:48.085Z,1.30
2018-06-15T00:23:48.073Z,1.20
2018-06-15T00:24:48.063Z,1.20
2018-06-15T00:25:48.050Z,1.20
2018-06-15T00:26:48.035Z,1.40
2018-06-15T00:27:48.225Z,1.20
2018-06-15T00:28:48.011Z,1.40
2018-06-15T00:29:47.998Z,1.30
2018-06-15T00:30:47.986Z,1.30
2018-06-15T00:31:47.974Z,1.40
2018-06-15T00:32:47.962Z,1.30
2018-06-15T00:33:47.949Z,1.40
2018-06-15T00:34:47.935Z,1.30
2018-06-15T00:35:47.924Z,1.30
2018-06-15T00:36:47.928Z,1.50
2018-06-15T00:37:47.920Z,1.40
2018-06-15T00:38:47.917Z,1.50
2018-06-15T00:39:47.902Z,1.50
2018-06-15T00:40:47.885Z,1.60
2018-06-15T00:41:47.848Z,1.40
2018-06-15T00:42:47.835Z,1.40
2018-06-15T00:43:47.823Z,1.70
2018-06-15T00:44:47.812Z,1.60
2018-06-15T00:45:47.797Z,1.80
2018-06-15T00:46:47.784Z,1.70
2018-06-15T00:47:47.771Z,1.90
2018-06-15T00:48:47.760Z,2.00
2018-06-15T00:49:47.749Z,1.60
2018-06-15T00:50:47.734Z,1.60
2018-06-15T00:51:47.730Z,1.70
2018-06-15T00:52:47.719Z,2.10
2018-06-15T00:53:47.707Z,1.80
2018-06-15T00:54:47.693Z,1.80
2018-06-15T00:55:47.681Z,1.90
2018-06-15T00:56:47.668Z,2.00
2018-06-15T00:57:47.656Z,2.00
2018-06-15T00:58:47.643Z,1.70
2018-06-15T00:59:47.631Z,1.80
2018-06-15T01:00:47.619Z,1.80
2018-06-15T01:01:47.606Z,2.10
2018-06-15T01:02:47.592Z,1.70
2018-06-15T01:03:47.579Z,1.90
2018-06-15T01:04:47.574Z,2.10
2018-06-15T01:05:47.557Z,2.30
2018-06-15T01:06:47.542Z,2.50
2018-06-15T01:07:47.530Z,1.90
2018-06-15T01:08:47.518Z,1.90
2018-06-15T01:09:47.505Z,1.80
2018-06-15T01:10:47.492Z,2.20
2018-06-15T01:11:47.480Z,2.30
2018-06-15T01:12:47.469Z,1.90
2018-06-15T01:13:47.456Z,2.00
2018-06-15T01:14:47.443Z,2.00
2018-06-15T01:15:47.430Z,2.00
2018-06-15T01:16:47.418Z,2.10
2018-06-15T01:17:47.405Z,1.70
2018-06-15T01:18:47.394Z,1.90
2018-06-15T01:19:47.371Z,1.80
2018-06-15T01:20:47.360Z,1.60
2018-06-15T01:21:47.347Z,2.00
2018-06-15T01:22:47.333Z,2.10
2018-06-15T01:23:47.322Z,2.30
2018-06-15T01:24:47.314Z,2.30
2018-06-15T01:25:47.297Z,2.30
2018-06-15T01:26:47.284Z,2.00
2018-06-15T01:27:47.471Z,2.50
2018-06-15T01:28:47.259Z,2.20
2018-06-15T01:29:47.247Z,2.50
2018-06-15T01:30:47.234Z,2.60
2018-06-15T01:31:47.224Z,2.70
2018-06-15T01:32:47.209Z,2.80
2018-06-15T01:33:47.198Z,2.30
2018-06-15T01:34:47.186Z,2.50
2018-06-15T01:35:47.174Z,3.00
2018-06-15T01:36:47.160Z,3.00
2018-06-15T01:37:47.149Z,3.10
2018-06-15T01:38:47.135Z,3.30
2018-06-15T01:39:47.124Z,2.90
2018-06-15T01:40:47.115Z,2.80
2018-06-15T01:41:47.099Z,2.60
2018-06-15T01:42:47.087Z,3.30
2018-06-15T01:43:47.075Z,3.00
2018-06-15T01:44:47.065Z,3.00
2018-06-15T01:45:47.052Z,3.30
2018-06-15T01:46:47.039Z,2.90
2018-06-15T01:47:47.026Z,3.10
2018-06-15T01:48:47.014Z,3.30
2018-06-15T01:49:47.001Z,3.40
2018-06-15T01:50:46.989Z,3.00
2018-06-15T01:51:46.978Z,3.60
2018-06-15T01:52:46.964Z,3.60
2018-06-15T01:53:46.952Z,3.40
2018-06-15T01:54:46.939Z,3.40
2018-06-15T01:55:46.929Z,3.80
2018-06-15T01:56:46.915Z,3.50
2018-06-15T01:57:47.105Z,3.60
2018-06-15T01:58:46.892Z,3.60
2018-06-15T01:59:46.878Z,3.50
2018-06-15T02:00:46.866Z,3.90
2018-06-15T02:01:46.855Z,3.80
2018-06-15T02:02:46.843Z,3.80
2018-06-15T02:03:46.829Z,3.50
2018-06-15T02:04:46.817Z,3.30
2018-06-15T02:05:46.806Z,3.70
2018-06-15T02:06:46.798Z,3.90
2018-06-15T02:07:46.810Z,3.90
2018-06-15T02:08:46.771Z,3.70
2018-06-15T02:09:46.757Z,4.40
2018-06-15T02:10:46.749Z,4.20
2018-06-15T02:11:46.733Z,3.80
2018-06-15T02:12:46.721Z,3.70
2018-06-15T02:13:46.709Z,3.90
2018-06-15T02:14:46.696Z,3.90
2018-06-15T02:15:46.690Z,3.80
2018-06-15T02:16:46.673Z,4.40
2018-06-15T02:17:46.662Z,3.80
2018-06-15T02:18:46.650Z,3.70
2018-06-15T02:19:46.636Z,3.50
2018-06-15T02:20:46.625Z,3.50
2018-06-15T02:21:46.813Z,3.70
2018-06-15T02:22:46.599Z,3.20
2018-06-15T02:23:46.587Z,3.70
2018-06-15T02:24:46.574Z,3.30
2018-06-15T02:25:46.563Z,3.50
2018-06-15T02:26:46.551Z,3.50
2018-06-15T02:27:46.538Z,3.50
2018-06-15T02:28:46.525Z,4.90
2018-06-15T02:29:46.516Z,4.60
2018-06-15T02:30:46.501Z,5.10
2018-06-15T02:31:46.495Z,4.80
2018-06-15T02:32:46.478Z,5.00
2018-06-15T02:33:46.470Z,4.60
2018-06-15T02:34:46.456Z,4.20
2018-06-15T02:35:46.440Z,4.90
2018-06-15T02:36:46.428Z,4.70
2018-06-15T02:37:46.417Z,5.60
2018-06-15T02:38:46.404Z,6.40
2018-06-15T02:39:46.395Z,6.60
2018-06-15T02:40:46.381Z,6.20
2018-06-15T02:41:46.368Z,6.50
2018-06-15T02:42:46.356Z,5.90
2018-06-15T02:43:46.343Z,6.10
2018-06-15T02:44:46.331Z,5.20
2018-06-15T02:45:46.320Z,4.50
2018-06-15T02:46:46.306Z,5.10
2018-06-15T02:47:46.303Z,4.90
2018-06-15T02:48:46.282Z,4.00
2018-06-15T02:49:46.271Z,4.50
2018-06-15T02:50:46.256Z,4.90
2018-06-15T02:51:46.248Z,4.70
2018-06-15T02:52:46.232Z,4.80
2018-06-15T02:53:46.221Z,4.70
2018-06-15T02:54:46.207Z,4.50
2018-06-15T02:55:46.195Z,4.40
2018-06-15T02:56:46.185Z,4.80
2018-06-15T02:57:46.171Z,4.20
2018-06-15T02:58:46.157Z,3.80
2018-06-15T02:59:46.145Z,3.90
2018-06-15T03:00:46.133Z,4.70
2018-06-15T03:01:46.120Z,4.00
2018-06-15T03:02:46.107Z,4.40
2018-06-15T03:03:46.100Z,4.30
2018-06-15T03:04:46.083Z,4.10
2018-06-15T03:05:46.070Z,4.50
2018-06-15T03:06:46.057Z,4.40
2018-06-15T03:07:46.051Z,4.90
2018-06-15T03:08:46.033Z,5.10
2018-06-15T03:09:46.021Z,5.10
2018-06-15T03:10:46.008Z,4.90
2018-06-15T03:11:45.996Z,5.40
2018-06-15T03:12:45.984Z,5.20
2018-06-15T03:13:45.971Z,5.10
2018-06-15T03:14:45.958Z,5.30
2018-06-15T03:15:45.946Z,5.60
2018-06-15T03:16:45.938Z,5.50
2018-06-15T03:17:45.921Z,5.00
2018-06-15T03:18:45.908Z,5.70
2018-06-15T03:19:45.896Z,5.70
2018-06-15T03:20:45.884Z,5.40
2018-06-15T03:21:45.872Z,6.00
2018-06-15T03:22:45.859Z,5.90
2018-06-15T03:23:45.846Z,5.90
2018-06-15T03:24:45.834Z,6.00
2018-06-15T03:25:45.823Z,5.90
2018-06-15T03:26:45.809Z,6.30
2018-06-15T03:27:45.796Z,5.70
2018-06-15T03:28:45.784Z,5.90
2018-06-15T03:29:45.773Z,5.70
2018-06-15T03:30:45.760Z,5.60
2018-06-15T03:31:45.748Z,6.20
2018-06-15T03:32:45.736Z,6.40
2018-06-15T03:33:45.723Z,5.70
2018-06-15T03:34:45.711Z,6.00
2018-06-15T03:35:45.698Z,6.10
2018-06-15T03:36:45.685Z,5.70
2018-06-15T03:37:45.677Z,6.30
2018-06-15T03:38:45.660Z,6.30
2018-06-15T03:39:45.649Z,6.40
2018-06-15T03:40:45.636Z,6.70
2018-06-15T03:41:45.626Z,6.70
2018-06-15T03:42:45.611Z,5.70
2018-06-15T03:43:45.598Z,6.20
2018-06-15T03:44:45.588Z,6.50
2018-06-15T03:45:45.575Z,6.40
2018-06-15T03:46:45.563Z,6.00
2018-06-15T03:47:45.551Z,5.50
2018-06-15T03:48:45.537Z,6.70
2018-06-15T03:49:45.525Z,7.40
2018-06-15T03:50:45.512Z,7.30
2018-06-15T03:51:45.500Z,7.40
2018-06-15T03:52:45.487Z,7.50
2018-06-15T03:53:45.475Z,7.20
2018-06-15T03:54:45.462Z,8.30
2018-06-15T03:55:45.450Z,7.90
2018-06-15T03:56:45.438Z,7.90
2018-06-15T03:57:45.426Z,8.40
2018-06-15T03:58:45.431Z,8.20
2018-06-15T03:59:45.401Z,9.20
2018-06-15T04:00:45.388Z,9.10
2018-06-15T04:01:45.378Z,9.20
2018-06-15T04:02:45.363Z,9.10
2018-06-15T04:03:45.552Z,9.10
2018-06-15T04:04:45.338Z,10.10
2018-06-15T04:05:45.326Z,9.60
2018-06-15T04:06:45.326Z,11.10
2018-06-15T04:07:45.324Z,10.30
2018-06-15T04:08:45.290Z,12.10
2018-06-15T04:09:45.279Z,11.80
2018-06-15T04:10:45.263Z,12.20
2018-06-15T04:11:45.251Z,12.80
2018-06-15T04:12:45.240Z,13.00
2018-06-15T04:13:45.231Z,12.60
2018-06-15T04:14:45.213Z,12.90
2018-06-15T04:15:45.201Z,12.70
2018-06-15T04:16:45.189Z,13.40
2018-06-15T04:17:45.180Z,14.90
2018-06-15T04:18:45.164Z,14.30
2018-06-15T04:19:45.161Z,14.60
2018-06-15T04:20:45.139Z,14.90
2018-06-15T04:21:45.128Z,14.50
2018-06-15T04:22:45.114Z,14.50
2018-06-15T04:23:45.104Z,14.10
2018-06-15T04:24:45.090Z,15.60
2018-06-15T04:25:45.077Z,14.80
2018-06-15T04:26:45.064Z,15.20
2018-06-15T04:27:45.052Z,14.20
2018-06-15T04:28:45.040Z,14.90
2018-06-15T04:29:45.028Z,14.90
2018-06-15T04:30:45.017Z,15.00
2018-06-15T04:31:45.003Z,15.20
2018-06-15T04:32:44.996Z,14.90
2018-06-15T04:33:44.978Z,16.20
2018-06-15T04:34:44.965Z,16.10
2018-06-15T04:35:44.956Z,15.20
2018-06-15T04:36:44.940Z,15.40
2018-06-15T04:37:44.931Z,15.50
2018-06-15T04:38:44.916Z,17.10
2018-06-15T04:39:44.905Z,16.40
2018-06-15T04:40:44.892Z,15.60
2018-06-15T04:41:44.880Z,16.70
2018-06-15T04:42:44.866Z,16.40
2018-06-15T04:43:44.854Z,16.60
2018-06-15T04:44:44.842Z,16.50
2018-06-15T04:45:44.830Z,17.40
2018-06-15T04:46:44.816Z,16.10
2018-06-15T04:47:44.806Z,16.60
2018-06-15T04:48:44.792Z,16.30
2018-06-15T04:49:44.781Z,15.90
2018-06-15T04:50:44.767Z,17.30
2018-06-15T04:51:44.755Z,17.00
2018-06-15T04:52:44.743Z,16.90
2018-06-15T04:53:44.731Z,17.80
2018-06-15T04:54:44.717Z,17.70
2018-06-15T04:55:44.705Z,17.20
2018-06-15T04:56:44.694Z,19.30
2018-06-15T04:57:44.686Z,18.30
2018-06-15T04:58:44.668Z,17.70
2018-06-15T04:59:44.656Z,17.80
2018-06-15T05:00:44.644Z,17.00
2018-06-15T05:01:44.632Z,17.60
2018-06-15T05:02:44.618Z,17.60
2018-06-15T05:03:44.606Z,18.00
2018-06-15T05:04:44.594Z,16.90
2018-06-15T05:05:44.582Z,15.90
2018-06-15T05:06:44.569Z,17.70
2018-06-15T05:07:44.557Z,16.10
2018-06-15T05:08:44.544Z,16.00
2018-06-15T05:09:44.532Z,16.90
2018-06-15T05:10:44.519Z,17.50
2018-06-15T05:11:44.509Z,18.30
2018-06-15T05:12:44.495Z,17.80
2018-06-15T05:13:44.482Z,18.80
2018-06-15T05:14:44.469Z,18.00
2018-06-15T05:15:44.458Z,16.60
2018-06-15T05:16:44.445Z,18.20
2018-06-15T05:17:44.433Z,17.70
2018-06-15T05:18:44.420Z,17.90
2018-06-15T05:19:44.408Z,17.70
2018-06-15T05:20:44.395Z,19.00
2018-06-15T05:21:44.383Z,17.90
2018-06-15T05:22:44.370Z,18.80
2018-06-15T05:23:44.357Z,18.50
2018-06-15T05:24:44.345Z,17.90
2018-06-15T05:25:44.338Z,17.60
2018-06-15T05:26:44.319Z,16.90
2018-06-15T05:27:44.308Z,18.10
2018-06-15T05:28:44.295Z,17.60
2018-06-15T05:29:44.283Z,17.50
2018-06-15T05:30:44.276Z,16.40
2018-06-15T05:31:44.258Z,17.80
2018-06-15T05:32:44.246Z,16.40
2018-06-15T05:33:44.233Z,17.90
2018-06-15T05:34:44.219Z,17.20
2018-06-15T05:35:44.208Z,17.30
2018-06-15T05:36:44.199Z,17.90
2018-06-15T05:37:44.183Z,16.40
2018-06-15T05:38:44.169Z,17.30
2018-06-15T05:39:44.157Z,15.80
2018-06-15T05:40:44.145Z,17.40
2018-06-15T05:41:44.133Z,16.80
2018-06-15T05:42:44.157Z,16.70
2018-06-15T05:43:44.106Z,16.30
2018-06-15T05:44:44.096Z,15.60
2018-06-15T05:45:44.282Z,16.50
2018-06-15T05:46:44.072Z,17.10
2018-06-15T05:47:44.056Z,17.30
2018-06-15T05:48:44.046Z,14.80
2018-06-15T05:49:44.032Z,15.90
2018-06-15T05:50:44.019Z,15.90
2018-06-15T05:51:44.206Z,15.70
2018-06-15T05:52:43.994Z,17.70
2018-06-15T05:53:43.982Z,17.30
2018-06-15T05:54:43.968Z,18.10
2018-06-15T05:55:43.972Z,15.80
2018-06-15T05:56:43.943Z,14.20
2018-06-15T05:57:43.931Z,14.90
2018-06-15T05:58:43.917Z,16.70
2018-06-15T05:59:43.906Z,14.90
2018-06-15T06:00:43.893Z,15.40
2018-06-15T06:01:43.882Z,15.30
2018-06-15T06:02:43.867Z,15.50
2018-06-15T06:03:44.055Z,14.00
2018-06-15T06:04:43.843Z,13.50
2018-06-15T06:05:43.832Z,14.40
2018-06-15T06:06:43.817Z,13.90
2018-06-15T06:07:43.804Z,13.00
2018-06-15T06:08:43.795Z,13.70
2018-06-15T06:09:43.980Z,14.60
2018-06-15T06:10:43.767Z,13.00
2018-06-15T06:11:43.756Z,12.40
2018-06-15T06:12:43.742Z,12.00
2018-06-15T06:13:43.730Z,13.00
2018-06-15T06:14:43.717Z,11.10
2018-06-15T06:15:43.707Z,11.30
2018-06-15T06:16:43.693Z,11.60
2018-06-15T06:17:43.681Z,9.70
2018-06-15T06:18:43.667Z,9.50
2018-06-15T06:19:43.665Z,9.10
2018-06-15T06:20:43.646Z,8.30
2018-06-15T06:21:43.633Z,6.80
2018-06-15T06:22:43.618Z,7.40
2018-06-15T06:23:43.605Z,5.70
2018-06-15T06:24:43.593Z,5.40
2018-06-15T06:25:43.581Z,5.50
2018-06-15T06:26:43.608Z,5.80
2018-06-15T06:27:43.555Z,5.10
2018-06-15T06:28:43.543Z,5.20
2018-06-15T06:29:43.530Z,4.10
2018-06-15T06:30:43.517Z,3.80
2018-06-15T06:31:43.504Z,3.60
2018-06-15T06:32:43.493Z,3.60
2018-06-15T06:33:43.680Z,3.20
2018-06-15T06:34:43.467Z,3.50
2018-06-15T06:35:43.458Z,3.40
2018-06-15T06:36:43.442Z,3.50
2018-06-15T06:37:43.430Z,3.10
2018-06-15T06:38:43.416Z,2.80
2018-06-15T06:39:43.606Z,2.50
2018-06-15T06:40:43.391Z,2.50
2018-06-15T06:41:43.384Z,2.40
2018-06-15T06:42:43.374Z,2.50
2018-06-15T06:43:43.356Z,2.30
2018-06-15T06:44:43.345Z,2.20
2018-06-15T06:45:43.329Z,2.30
2018-06-15T06:46:43.316Z,2.40
2018-06-15T06:47:43.306Z,2.00
2018-06-15T06:48:43.291Z,2.30
2018-06-15T06:49:43.282Z,2.10
2018-06-15T06:50:43.266Z,2.00
2018-06-15T06:51:43.253Z,2.10
2018-06-15T06:52:43.242Z,2.10
2018-06-15T06:53:43.230Z,1.70
2018-06-15T06:54:43.215Z,2.00
2018-06-15T06:55:43.203Z,1.90
2018-06-15T06:56:43.191Z,1.70
2018-06-15T06:57:43.178Z,2.00
2018-06-15T06:58:43.165Z,2.00
2018-06-15T06:59:43.153Z,1.80
2018-06-15T07:00:43.141Z,1.90
2018-06-15T07:01:43.130Z,1.90
2018-06-15T07:02:43.117Z,1.80
2018-06-15T07:03:43.102Z,2.00
2018-06-15T07:04:43.090Z,1.90
2018-06-15T07:05:43.080Z,1.80
2018-06-15T07:06:43.065Z,1.80
2018-06-15T07:07:43.053Z,1.80
2018-06-15T07:08:43.041Z,1.70
2018-06-15T07:09:43.028Z,1.80
2018-06-15T07:10:43.015Z,1.90
2018-06-15T07:11:43.003Z,2.00
2018-06-15T07:12:42.991Z,2.00
2018-06-15T07:13:42.978Z,1.80
2018-06-15T07:14:42.965Z,1.60
2018-06-15T07:15:42.953Z,1.90
2018-06-15T07:16:42.941Z,2.00
2018-06-15T07:17:42.931Z,2.10
2018-06-15T07:18:42.915Z,1.80
2018-06-15T07:19:42.903Z,1.80
2018-06-15T07:20:42.891Z,2.20
2018-06-15T07:21:42.879Z,1.70
2018-06-15T07:22:42.865Z,1.90
2018-06-15T07:23:42.863Z,2.20
2018-06-15T07:24:42.841Z,1.80
2018-06-15T07:25:42.828Z,1.70
2018-06-15T07:26:42.815Z,1.80
2018-06-15T07:27:42.804Z,2.10
2018-06-15T07:28:42.791Z,1.70
2018-06-15T07:29:42.779Z,1.70
2018-06-15T07:30:42.765Z,1.70
2018-06-15T07:31:42.753Z,1.60
2018-06-15T07:32:42.741Z,1.40
2018-06-15T07:33:42.929Z,1.70
2018-06-15T07:34:42.715Z,1.60
2018-06-15T07:35:42.703Z,1.30
2018-06-15T07:36:42.691Z,1.50
2018-06-15T07:37:42.680Z,1.60
2018-06-15T07:38:42.665Z,1.50
2018-06-15T07:39:42.652Z,1.70
2018-06-15T07:40:42.640Z,1.50
2018-06-15T07:41:42.629Z,1.30
2018-06-15T07:42:42.614Z,1.20
2018-06-15T07:43:42.602Z,1.40
2018-06-15T07:44:42.590Z,1.10
2018-06-15T07:45:42.579Z,1.30
2018-06-15T07:46:42.564Z,1.30
2018-06-15T07:47:42.552Z,1.40
2018-06-15T07:48:42.540Z,1.40
2018-06-15T07:49:42.528Z,1.20
2018-06-15T07:50:42.514Z,1.60
2018-06-15T07:51:42.504Z,1.90
2018-06-15T07:52:42.490Z,1.80
2018-06-15T07:53:42.479Z,2.00
2018-06-15T07:54:42.464Z,1.60
2018-06-15T07:55:42.452Z,2.00
2018-06-15T07:56:42.440Z,2.00
2018-06-15T07:57:42.428Z,1.80
2018-06-15T07:58:42.414Z,2.00
2018-06-15T07:59:42.464Z,1.60
2018-06-15T08:00:42.390Z,1.70
2018-06-15T08:01:42.380Z,1.50
2018-06-15T08:02:42.366Z,1.80
2018-06-15T08:03:42.352Z,2.10
2018-06-15T08:04:42.339Z,1.90
2018-06-15T08:05:42.328Z,1.40
2018-06-15T08:06:42.317Z,1.60
2018-06-15T08:07:42.301Z,1.50
2018-06-15T08:08:42.289Z,1.60
2018-06-15T08:09:42.277Z,1.40
2018-06-15T08:10:42.264Z,1.60
2018-06-15T08:11:42.252Z,1.50
2018-06-15T08:12:42.240Z,1.60
2018-06-15T08:13:42.227Z,1.30
2018-06-15T08:14:42.216Z,1.40
2018-06-15T08:15:42.202Z,1.30
2018-06-15T08:16:42.190Z,1.50
2018-06-15T08:17:42.178Z,1.20
2018-06-15T08:18:42.166Z,1.40
2018-06-15T08:19:42.153Z,1.50
2018-06-15T08:20:42.140Z,1.10
2018-06-15T08:21:42.134Z,1.00
2018-06-15T08:22:42.115Z,1.00
2018-06-15T08:23:42.103Z,0.80
2018-06-15T08:24:42.091Z,0.80
2018-06-15T08:25:42.079Z,0.70
2018-06-15T08:26:42.067Z,0.80
2018-06-15T08:27:42.078Z,0.60
2018-06-15T08:28:42.042Z,0.70
2018-06-15T08:29:42.029Z,0.70
2018-06-15T08:30:42.017Z,0.70
2018-06-15T08:31:42.020Z,0.80
2018-06-15T08:32:41.992Z,0.80
2018-06-15T08:33:41.982Z,1.00
2018-06-15T08:34:41.967Z,1.00
2018-06-15T08:35:41.955Z,1.00
2018-06-15T08:36:41.946Z,1.00
2018-06-15T08:37:41.931Z,1.00
2018-06-15T08:38:41.918Z,1.00
2018-06-15T08:39:42.106Z,1.10
2018-06-15T08:40:41.893Z,0.90
2018-06-15T08:41:41.881Z,1.00
2018-06-15T08:42:41.868Z,1.20
2018-06-15T08:43:41.856Z,1.30
2018-06-15T08:44:41.846Z,1.50
2018-06-15T08:45:41.833Z,1.20
2018-06-15T08:46:41.818Z,1.70
2018-06-15T08:47:41.806Z,1.50
2018-06-15T08:48:41.794Z,1.70
2018-06-15T08:49:41.782Z,1.50
2018-06-15T08:50:41.771Z,1.50
2018-06-15T08:51:41.957Z,1.50
2018-06-15T08:52:41.760Z,1.80
2018-06-15T08:53:41.733Z,1.70
2018-06-15T08:54:41.720Z,1.70
2018-06-15T08:55:41.707Z,1.50
2018-06-15T08:56:41.697Z,1.60
2018-06-15T08:57:41.682Z,1.70
2018-06-15T08:58:41.670Z,1.90
2018-06-15T08:59:41.657Z,2.20
2018-06-15T09:00:41.645Z,2.20
2018-06-15T09:01:41.633Z,2.50
2018-06-15T09:02:41.619Z,2.50
2018-06-15T09:03:41.807Z,2.40
2018-06-15T09:04:41.596Z,2.80
2018-06-15T09:05:41.583Z,3.50
2018-06-15T09:06:41.573Z,3.40
2018-06-15T09:07:41.557Z,3.50
2018-06-15T09:08:41.546Z,3.70
2018-06-15T09:09:41.534Z,3.60
2018-06-15T09:10:41.520Z,4.10
2018-06-15T09:11:41.511Z,3.80
2018-06-15T09:12:41.496Z,4.20
2018-06-15T09:13:41.484Z,4.10
2018-06-15T09:14:41.471Z,3.90
2018-06-15T09:15:41.500Z,3.80
2018-06-15T09:16:41.449Z,4.60
2018-06-15T09:17:41.435Z,4.90
2018-06-15T09:18:41.422Z,4.90
2018-06-15T09:19:41.411Z,5.60
2018-06-15T09:20:41.397Z,6.30
2018-06-15T09:21:41.386Z,7.00
2018-06-15T09:22:41.373Z,8.10
2018-06-15T09:23:41.362Z,7.30
2018-06-15T09:24:41.348Z,8.00
2018-06-15T09:25:41.336Z,8.10
2018-06-15T09:26:41.323Z,8.50
2018-06-15T09:27:41.311Z,9.60
2018-06-15T09:28:41.305Z,9.20
2018-06-15T09:29:41.288Z,9.60
2018-06-15T09:30:41.274Z,9.90
2018-06-15T09:31:41.264Z,9.40
2018-06-15T09:32:41.321Z,9.90
2018-06-15T09:33:41.239Z,10.20
2018-06-15T09:34:41.225Z,9.10
2018-06-15T09:35:41.213Z,9.00
2018-06-15T09:36:41.201Z,10.30
2018-06-15T09:37:41.189Z,9.60
2018-06-15T09:38:41.176Z,9.70
2018-06-15T09:39:41.164Z,8.90
2018-06-15T09:40:41.152Z,11.00
2018-06-15T09:41:41.139Z,10.90
2018-06-15T09:42:41.126Z,10.40
2018-06-15T09:43:41.114Z,10.50
2018-06-15T09:44:41.104Z,10.30
2018-06-15T09:45:41.090Z,10.70
2018-06-15T09:46:41.078Z,10.10
2018-06-15T09:47:41.064Z,10.50
2018-06-15T09:48:41.055Z,11.50
2018-06-15T09:49:41.041Z,11.70
2018-06-15T09:50:41.029Z,12.10
2018-06-15T09:51:41.016Z,12.10
2018-06-15T09:52:41.006Z,12.90
2018-06-15T09:53:40.991Z,13.30
2018-06-15T09:54:40.978Z,13.30
2018-06-15T09:55:40.966Z,13.50
2018-06-15T09:56:40.958Z,14.20
2018-06-15T09:57:40.941Z,13.10
2018-06-15T09:58:40.930Z,13.80
2018-06-15T09:59:40.917Z,13.20
2018-06-15T10:00:40.908Z,14.50
2018-06-15T10:01:40.893Z,14.10
2018-06-15T10:02:40.880Z,14.50
2018-06-15T10:03:40.867Z,15.00
2018-06-15T10:04:40.856Z,14.10
2018-06-15T10:05:40.843Z,15.10
2018-06-15T10:06:40.831Z,14.60
2018-06-15T10:07:40.821Z,14.50
2018-06-15T10:08:40.807Z,14.70
2018-06-15T10:09:40.795Z,14.70
2018-06-15T10:10:40.783Z,15.00
2018-06-15T10:11:40.770Z,13.90
2018-06-15T10:12:40.758Z,13.90
2018-06-15T10:13:40.746Z,14.10
2018-06-15T10:14:40.733Z,13.80
2018-06-15T10:15:40.724Z,14.00
2018-06-15T10:16:40.754Z,13.20
2018-06-15T10:17:40.700Z,13.60
2018-06-15T10:18:40.685Z,13.40
2018-06-15T10:19:40.673Z,13.10
2018-06-15T10:20:40.661Z,12.60
2018-06-15T10:21:40.850Z,12.70
2018-06-15T10:22:40.636Z,13.90
2018-06-15T10:23:40.627Z,13.00
2018-06-15T10:24:40.613Z,13.10
2018-06-15T10:25:40.602Z,12.70
2018-06-15T10:26:40.588Z,13.30
2018-06-15T10:27:40.576Z,14.10
2018-06-15T10:28:40.568Z,13.60
2018-06-15T10:29:40.555Z,13.20
2018-06-15T10:30:40.540Z,14.20
2018-06-15T10:31:40.528Z,14.10
2018-06-15T10:32:40.518Z,15.40
2018-06-15T10:33:40.504Z,15.90
2018-06-15T10:34:40.496Z,16.50
2018-06-15T10:35:40.483Z,17.60
2018-06-15T10:36:40.468Z,16.80
2018-06-15T10:37:40.456Z,16.00
2018-06-15T10:38:40.444Z,15.90
2018-06-15T10:39:40.432Z,16.10
2018-06-15T10:40:40.420Z,14.80
2018-06-15T10:41:40.412Z,15.60
2018-06-15T10:42:40.396Z,15.10
2018-06-15T10:43:40.385Z,14.50
2018-06-15T10:44:40.373Z,13.70
2018-06-15T10:45:40.378Z,15.10
2018-06-15T10:46:40.351Z,15.90
2018-06-15T10:47:40.337Z,14.40
2018-06-15T10:48:40.329Z,14.40
2018-06-15T10:49:40.319Z,13.50
2018-06-15T10:50:40.302Z,14.10
2018-06-15T10:51:40.290Z,13.40
2018-06-15T10:52:40.278Z,13.10
2018-06-15T10:53:40.267Z,12.90
2018-06-15T10:54:40.254Z,12.60
2018-06-15T10:55:40.244Z,12.60
2018-06-15T10:56:40.231Z,13.90
2018-06-15T10:57:40.421Z,13.00
2018-06-15T10:58:40.206Z,12.70
2018-06-15T10:59:40.196Z,12.60
2018-06-15T11:00:40.188Z,13.20
2018-06-15T11:01:40.172Z,13.30
2018-06-15T11:02:40.160Z,12.90
2018-06-15T11:03:40.148Z,13.80
2018-06-15T11:04:40.137Z,14.30
2018-06-15T11:05:40.126Z,14.10
2018-06-15T11:06:40.115Z,14.60
2018-06-15T11:07:40.102Z,13.60
2018-06-15T11:08:40.092Z,12.90
2018-06-15T11:09:40.278Z,13.20
2018-06-15T11:10:40.067Z,12.90
2018-06-15T11:11:40.057Z,13.50
2018-06-15T11:12:40.045Z,14.60
2018-06-15T11:13:40.031Z,13.30
2018-06-15T11:14:40.019Z,15.10
2018-06-15T11:15:40.008Z,14.30
2018-06-15T11:16:39.998Z,13.40
2018-06-15T11:17:39.985Z,14.10
2018-06-15T11:18:40.033Z,14.00
2018-06-15T11:19:39.962Z,13.30
2018-06-15T11:20:39.950Z,14.00
2018-06-15T11:21:39.937Z,14.50
2018-06-15T11:22:39.925Z,12.60
2018-06-15T11:23:39.914Z,14.80
2018-06-15T11:24:39.903Z,14.80
2018-06-15T11:25:39.890Z,14.90
2018-06-15T11:26:39.878Z,15.40
2018-06-15T11:27:39.886Z,14.80
2018-06-15T11:28:39.855Z,14.30
2018-06-15T11:29:39.844Z,14.30
2018-06-15T11:30:39.831Z,13.80
2018-06-15T11:31:39.820Z,14.50
2018-06-15T11:32:39.810Z,15.20
2018-06-15T11:33:39.797Z,14.80
2018-06-15T11:34:39.786Z,14.30
2018-06-15T11:35:39.773Z,15.00
2018-06-15T11:36:39.763Z,16.30
2018-06-15T11:37:39.752Z,15.20
2018-06-15T11:38:39.743Z,15.10
2018-06-15T11:39:39.773Z,14.90
2018-06-15T11:40:39.730Z,16.40
2018-06-15T11:41:39.709Z,20.00
2018-06-15T11:42:39.712Z,18.30
2018-06-15T11:43:39.709Z,17.20
2018-06-15T11:44:39.698Z,15.30
2018-06-15T11:45:39.670Z,15.30
2018-06-15T11:46:39.662Z,16.70
2018-06-15T11:47:39.661Z,15.10
2018-06-15T11:48:39.629Z,14.50
2018-06-15T11:49:39.613Z,15.50
2018-06-15T11:50:39.602Z,15.10
2018-06-15T11:51:39.788Z,13.50
2018-06-15T11:52:39.576Z,14.70
2018-06-15T11:53:39.568Z,14.20
2018-06-15T11:54:39.755Z,14.70
2018-06-15T11:55:39.544Z,14.40
2018-06-15T11:56:39.531Z,14.90
2018-06-15T11:57:39.520Z,14.10
2018-06-15T11:58:39.508Z,14.20
2018-06-15T11:59:39.497Z,15.00
2018-06-15T12:00:39.485Z,14.80
2018-06-15T12:01:39.477Z,14.50
2018-06-15T12:02:39.464Z,14.90
2018-06-15T12:03:39.453Z,16.50
2018-06-15T12:04:39.439Z,16.40
2018-06-15T12:05:39.430Z,16.40
2018-06-15T12:06:39.416Z,18.20
2018-06-15T12:07:39.404Z,17.00
2018-06-15T12:08:39.394Z,16.70
2018-06-15T12:09:39.391Z,15.80
2018-06-15T12:10:39.371Z,16.30
2018-06-15T12:11:39.361Z,18.20
2018-06-15T12:12:39.352Z,17.50
2018-06-15T12:13:39.338Z,17.50
2018-06-15T12:14:39.328Z,16.60
2018-06-15T12:15:39.465Z,17.00
2018-06-15T12:16:39.351Z,16.60
2018-06-15T12:17:39.292Z,16.40
2018-06-15T12:18:39.281Z,16.70
2018-06-15T12:19:39.298Z,15.30
2018-06-15T12:20:39.277Z,16.90
2018-06-15T12:21:39.264Z,16.70
2018-06-15T12:22:39.260Z,16.20
2018-06-15T12:23:39.227Z,16.80
2018-06-15T12:24:39.219Z,15.70
2018-06-15T12:25:39.208Z,16.60
2018-06-15T12:26:39.202Z,16.50
2018-06-15T12:27:39.380Z,16.40
2018-06-15T12:28:39.211Z,16.60
2018-06-15T12:29:39.162Z,15.50
2018-06-15T12:30:39.145Z,16.10
2018-06-15T12:31:39.133Z,14.50
2018-06-15T12:32:39.160Z,15.50
2018-06-15T12:33:39.112Z,14.90
2018-06-15T12:34:39.100Z,14.60
2018-06-15T12:35:39.089Z,15.40
2018-06-15T12:36:39.077Z,14.40
2018-06-15T12:37:39.066Z,16.20
2018-06-15T12:38:39.204Z,14.50
2018-06-15T12:39:39.043Z,14.90
2018-06-15T12:40:39.032Z,15.70
2018-06-15T12:41:39.021Z,14.00
2018-06-15T12:42:39.008Z,14.50
2018-06-15T12:43:38.997Z,14.50
2018-06-15T12:44:38.987Z,14.30
2018-06-15T12:45:38.976Z,14.80
2018-06-15T12:46:38.964Z,15.70
2018-06-15T12:47:38.953Z,14.70
2018-06-15T12:48:38.941Z,15.30
2018-06-15T12:49:38.932Z,14.60
2018-06-15T12:50:38.919Z,15.30
2018-06-15T12:51:38.908Z,14.50
2018-06-15T12:52:38.899Z,14.80
2018-06-15T12:53:38.895Z,14.00
2018-06-15T12:54:38.878Z,13.90
2018-06-15T12:55:38.919Z,14.80
2018-06-15T12:56:38.854Z,17.60
2018-06-15T12:57:38.844Z,14.30
2018-06-15T12:58:38.843Z,14.40
2018-06-15T12:59:38.845Z,14.80
2018-06-15T13:00:38.807Z,15.60
2018-06-15T13:01:38.797Z,15.40
2018-06-15T13:02:38.785Z,16.10
2018-06-15T13:03:38.776Z,16.10
2018-06-15T13:04:38.766Z,15.00
2018-06-15T13:05:38.760Z,15.10
2018-06-15T13:06:38.741Z,14.40
2018-06-15T13:07:38.730Z,15.20